Gould, Arkansas
Current Conditions -  °F | °C
As of 2:53 PM on Monday 22 Dec 2014 (Local Time) from KPBF Reporting Station
Overcast Overcast  
Wind Chill: 58°   Ceiling: 1800
Heat Index: 58°   Visibility: 10mi
Dew Point: 52°   Wind: 10mph
Humidity: 81%   Direction: 170°S
Pressure: 29.58"   Gusts: NA
Location:  33.99°N, 91.56°W
Report Text: KPBF 222053Z AUTO 17009KT 10SM OVC018 14/11 A2958 RMK AO2 SLP016 60000 T01440111 56029
Loading
Personal Weather Stations






























Interactive Weather Map New forecast layout! Learn more

10-Day Weather Forecast

Advertisements
Track Severe Weather on mobile